createdAt,value
2023-05-09T00:00:56.155Z,25.40
2023-05-09T00:01:56.229Z,25.38
2023-05-09T00:02:56.248Z,25.38
2023-05-09T00:03:56.263Z,25.40
2023-05-09T00:04:56.269Z,25.38
2023-05-09T00:05:56.296Z,25.37
2023-05-09T00:06:56.328Z,25.37
2023-05-09T00:07:56.365Z,25.37
2023-05-09T00:08:56.399Z,25.38
2023-05-09T00:09:56.451Z,25.36
2023-05-09T00:10:56.613Z,25.36
2023-05-09T00:11:56.541Z,25.37
2023-05-09T00:12:56.617Z,25.37
2023-05-09T00:13:56.605Z,25.36
2023-05-09T00:14:56.643Z,25.36
2023-05-09T00:15:56.716Z,25.37
2023-05-09T00:16:56.735Z,25.36
2023-05-09T00:17:56.826Z,25.37
2023-05-09T00:18:56.821Z,25.34
2023-05-09T00:19:56.863Z,25.34
2023-05-09T00:20:56.905Z,25.34
2023-05-09T00:21:56.951Z,25.36
2023-05-09T00:22:56.987Z,25.36
2023-05-09T00:23:57.022Z,25.33
2023-05-09T00:24:57.065Z,25.34
2023-05-09T00:25:57.116Z,25.31
2023-05-09T00:26:57.289Z,25.33
2023-05-09T00:27:57.212Z,25.34
2023-05-09T00:28:57.244Z,25.34
2023-05-09T00:29:57.299Z,25.34
2023-05-09T00:30:57.339Z,25.33
2023-05-09T00:31:57.429Z,25.33
2023-05-09T00:32:57.465Z,25.33
2023-05-09T00:33:57.488Z,25.33
2023-05-09T00:34:57.564Z,25.34
2023-05-09T00:35:57.616Z,25.33
2023-05-09T00:36:57.637Z,25.34
2023-05-09T00:37:57.686Z,25.33
2023-05-09T00:38:57.750Z,25.33
2023-05-09T00:39:57.817Z,25.31
2023-05-09T00:40:57.837Z,25.33
2023-05-09T00:41:57.881Z,25.34
2023-05-09T00:42:58.037Z,25.31
2023-05-09T00:43:57.963Z,25.31
2023-05-09T00:44:58.015Z,25.31
2023-05-09T00:45:58.095Z,25.33
2023-05-09T00:46:58.118Z,25.33
2023-05-09T00:47:58.222Z,25.31
2023-05-09T00:48:58.215Z,25.33
2023-05-09T00:49:58.350Z,25.33
2023-05-09T00:50:58.299Z,25.31
2023-05-09T00:51:58.348Z,25.33
2023-05-09T00:52:58.408Z,25.31
2023-05-09T00:53:58.440Z,25.31
2023-05-09T00:54:58.481Z,25.31
2023-05-09T00:55:58.535Z,25.33
2023-05-09T00:56:58.584Z,25.30
2023-05-09T00:57:58.640Z,25.31
2023-05-09T00:58:58.812Z,25.30
2023-05-09T00:59:58.742Z,25.33
2023-05-09T01:00:58.801Z,25.30
2023-05-09T01:01:58.822Z,25.30
2023-05-09T01:02:58.928Z,25.30
2023-05-09T01:03:58.915Z,25.30
2023-05-09T01:04:58.970Z,25.31
2023-05-09T01:05:59.014Z,25.30
2023-05-09T01:06:59.053Z,25.30
2023-05-09T01:07:59.101Z,25.29
2023-05-09T01:08:59.155Z,25.27
2023-05-09T01:09:59.195Z,25.29
2023-05-09T01:10:59.253Z,25.29
2023-05-09T01:11:59.314Z,25.30
2023-05-09T01:12:59.397Z,25.31
2023-05-09T01:13:59.400Z,25.29
2023-05-09T01:14:59.572Z,25.33
2023-05-09T01:15:59.539Z,25.29
2023-05-09T01:16:59.562Z,25.29
2023-05-09T01:17:59.660Z,25.29
2023-05-09T01:18:59.656Z,25.29
2023-05-09T01:19:59.707Z,25.31
2023-05-09T01:20:59.744Z,25.29
2023-05-09T01:21:59.775Z,25.27
2023-05-09T01:22:59.827Z,25.29
2023-05-09T01:23:59.872Z,25.29
2023-05-09T01:24:59.921Z,25.30
2023-05-09T01:25:59.962Z,25.29
2023-05-09T01:27:00.023Z,25.30
2023-05-09T01:28:00.102Z,25.29
2023-05-09T01:29:00.128Z,25.27
2023-05-09T01:30:00.210Z,25.27
2023-05-09T01:31:00.346Z,25.27
2023-05-09T01:32:00.253Z,25.30
2023-05-09T01:33:00.354Z,25.30
2023-05-09T01:34:00.349Z,25.30
2023-05-09T01:35:00.393Z,25.29
2023-05-09T01:36:00.446Z,25.27
2023-05-09T01:37:00.494Z,25.30
2023-05-09T01:38:00.557Z,25.27
2023-05-09T01:39:00.600Z,25.26
2023-05-09T01:40:00.648Z,25.29
2023-05-09T01:41:00.702Z,25.29
2023-05-09T01:42:00.771Z,25.29
2023-05-09T01:43:00.802Z,25.29
2023-05-09T01:44:01.032Z,25.29
2023-05-09T01:45:00.898Z,25.27
2023-05-09T01:46:00.942Z,25.29
2023-05-09T01:47:01.300Z,25.30
2023-05-09T01:48:01.072Z,25.27
2023-05-09T01:49:01.101Z,25.27
2023-05-09T01:50:01.152Z,25.29
2023-05-09T01:51:01.204Z,25.27
2023-05-09T01:52:01.253Z,25.26
2023-05-09T01:53:01.307Z,25.30
2023-05-09T01:54:01.358Z,25.27
2023-05-09T01:55:01.414Z,25.27
2023-05-09T01:56:01.462Z,25.29
2023-05-09T01:57:01.496Z,25.29
2023-05-09T01:58:01.545Z,25.27
2023-05-09T01:59:01.588Z,25.27
2023-05-09T02:00:01.642Z,25.26
2023-05-09T02:01:01.713Z,25.26
2023-05-09T02:02:01.776Z,25.29
2023-05-09T02:03:01.928Z,25.26
2023-05-09T02:04:01.811Z,25.24
2023-05-09T02:05:01.863Z,25.27
2023-05-09T02:06:01.915Z,25.24
2023-05-09T02:07:01.971Z,25.26
2023-05-09T02:08:02.024Z,25.27
2023-05-09T02:09:02.052Z,25.26
2023-05-09T02:10:02.102Z,25.26
2023-05-09T02:11:02.159Z,25.27
2023-05-09T02:12:02.197Z,25.29
2023-05-09T02:13:02.273Z,25.26
2023-05-09T02:14:02.284Z,25.23
2023-05-09T02:15:02.328Z,25.26
2023-05-09T02:16:02.389Z,25.26
2023-05-09T02:17:02.507Z,25.26
2023-05-09T02:18:02.498Z,25.27
2023-05-09T02:19:02.650Z,25.27
2023-05-09T02:20:02.577Z,25.27
2023-05-09T02:21:02.621Z,25.26
2023-05-09T02:22:02.665Z,25.24
2023-05-09T02:23:02.714Z,25.24
2023-05-09T02:24:02.770Z,25.23
2023-05-09T02:25:02.812Z,25.23
2023-05-09T02:26:02.863Z,25.26
2023-05-09T02:27:02.938Z,25.24
2023-05-09T02:28:02.969Z,25.26
2023-05-09T02:29:03.024Z,25.26
2023-05-09T02:30:03.074Z,25.24
2023-05-09T02:31:03.127Z,25.24
2023-05-09T02:32:03.209Z,25.24
2023-05-09T02:33:03.241Z,25.23
2023-05-09T02:34:03.272Z,25.24
2023-05-09T02:35:03.462Z,25.24
2023-05-09T02:36:03.377Z,25.26
2023-05-09T02:37:03.429Z,25.26
2023-05-09T02:38:03.473Z,25.24
2023-05-09T02:39:03.538Z,25.24
2023-05-09T02:40:03.584Z,25.26
2023-05-09T02:41:03.638Z,25.23
2023-05-09T02:42:03.695Z,25.26
2023-05-09T02:43:03.739Z,25.23
2023-05-09T02:44:03.817Z,25.26
2023-05-09T02:45:03.846Z,25.23
2023-05-09T02:46:03.929Z,25.23
2023-05-09T02:47:03.934Z,25.24
2023-05-09T02:48:06.275Z,25.24
2023-05-09T02:49:03.988Z,25.24
2023-05-09T02:50:03.999Z,25.21
2023-05-09T02:51:04.122Z,25.24
2023-05-09T02:52:04.015Z,25.21
2023-05-09T02:53:04.844Z,25.24
2023-05-09T02:54:04.052Z,25.23
2023-05-09T02:55:04.110Z,25.24
2023-05-09T02:56:04.055Z,25.23
2023-05-09T02:57:04.088Z,25.23
2023-05-09T02:58:13.261Z,25.23
2023-05-09T02:59:04.081Z,25.23
2023-05-09T03:00:04.086Z,25.23
2023-05-09T03:01:04.138Z,25.24
2023-05-09T03:02:04.108Z,25.20
2023-05-09T03:03:04.180Z,25.23
2023-05-09T03:04:04.151Z,25.24
2023-05-09T03:05:04.146Z,25.23
2023-05-09T03:06:04.158Z,25.21
2023-05-09T03:07:04.289Z,25.23
2023-05-09T03:08:04.182Z,25.23
2023-05-09T03:09:04.201Z,25.24
2023-05-09T03:10:04.258Z,25.21
2023-05-09T03:11:04.226Z,25.21
2023-05-09T03:12:04.247Z,25.23
2023-05-09T03:13:04.326Z,25.23
2023-05-09T03:14:04.262Z,25.23
2023-05-09T03:15:04.283Z,25.24
2023-05-09T03:16:04.329Z,25.20
2023-05-09T03:17:04.318Z,25.23
2023-05-09T03:18:04.410Z,25.21
2023-05-09T03:19:04.360Z,25.21
2023-05-09T03:20:04.623Z,25.21
2023-05-09T03:21:04.339Z,25.21
2023-05-09T03:22:04.344Z,25.21
2023-05-09T03:23:04.482Z,25.23
2023-05-09T03:24:04.388Z,25.21
2023-05-09T03:25:04.494Z,25.21
2023-05-09T03:26:04.400Z,25.21
2023-05-09T03:27:04.421Z,25.21
2023-05-09T03:28:04.406Z,25.21
2023-05-09T03:29:04.422Z,25.21
2023-05-09T03:30:04.440Z,25.23
2023-05-09T03:31:04.460Z,25.21
2023-05-09T03:32:04.464Z,25.21
2023-05-09T03:33:04.525Z,25.21
2023-05-09T03:34:04.483Z,25.23
2023-05-09T03:35:04.504Z,25.23
2023-05-09T03:36:04.535Z,25.21
2023-05-09T03:37:04.568Z,25.21
2023-05-09T03:38:04.609Z,25.21
2023-05-09T03:39:04.789Z,25.20
2023-05-09T03:40:04.761Z,25.20
2023-05-09T03:41:04.780Z,25.21
2023-05-09T03:42:04.843Z,25.23
2023-05-09T03:43:04.887Z,25.23
2023-05-09T03:44:04.952Z,25.20
2023-05-09T03:45:05.054Z,25.20
2023-05-09T03:46:05.048Z,25.23
2023-05-09T03:47:05.156Z,25.20
2023-05-09T03:48:05.173Z,25.21
2023-05-09T03:49:05.220Z,25.20
2023-05-09T03:50:05.276Z,25.20
2023-05-09T03:51:05.327Z,25.20
2023-05-09T03:52:05.382Z,25.19
2023-05-09T03:53:05.430Z,25.21
2023-05-09T03:54:05.494Z,25.21
2023-05-09T03:55:05.664Z,25.20
2023-05-09T03:56:05.591Z,25.21
2023-05-09T03:57:05.660Z,25.20
2023-05-09T03:58:05.700Z,25.19
2023-05-09T03:59:05.752Z,25.21
2023-05-09T04:00:05.843Z,25.21
2023-05-09T04:01:05.900Z,25.19
2023-05-09T04:02:06.020Z,25.19
2023-05-09T04:03:06.043Z,25.20
2023-05-09T04:04:06.098Z,25.21
2023-05-09T04:05:06.091Z,25.20
2023-05-09T04:06:06.156Z,25.20
2023-05-09T04:07:06.218Z,25.21
2023-05-09T04:08:06.273Z,25.20
2023-05-09T04:09:06.380Z,25.21
2023-05-09T04:10:06.449Z,25.20
2023-05-09T04:11:06.607Z,25.21
2023-05-09T04:12:06.506Z,25.19
2023-05-09T04:13:06.607Z,25.20
2023-05-09T04:14:07.464Z,25.21
2023-05-09T04:15:06.674Z,25.21
2023-05-09T04:16:06.746Z,25.21
2023-05-09T04:17:06.863Z,25.23
2023-05-09T04:18:06.915Z,25.20
2023-05-09T04:19:06.914Z,25.21
2023-05-09T04:20:06.959Z,25.21
2023-05-09T04:21:07.017Z,25.20
2023-05-09T04:22:07.086Z,25.20
2023-05-09T04:23:07.158Z,25.21
2023-05-09T04:24:07.199Z,25.20
2023-05-09T04:25:07.249Z,25.23
2023-05-09T04:26:07.315Z,25.20
2023-05-09T04:27:07.506Z,25.20
2023-05-09T04:28:07.431Z,25.21
2023-05-09T04:29:07.499Z,25.21
2023-05-09T04:30:07.553Z,25.21
2023-05-09T04:31:07.734Z,25.20
2023-05-09T04:32:07.745Z,25.21
2023-05-09T04:33:07.837Z,25.21
2023-05-09T04:34:07.794Z,25.21
2023-05-09T04:35:07.855Z,25.21
2023-05-09T04:36:07.913Z,25.20
2023-05-09T04:37:07.997Z,25.20
2023-05-09T04:38:08.057Z,25.20
2023-05-09T04:39:08.109Z,25.20
2023-05-09T04:40:08.184Z,25.21
2023-05-09T04:41:08.270Z,25.21
2023-05-09T04:42:08.298Z,25.19
2023-05-09T04:43:08.491Z,25.20
2023-05-09T04:44:08.427Z,25.21
2023-05-09T04:45:08.488Z,25.20
2023-05-09T04:46:08.579Z,25.20
2023-05-09T04:47:08.616Z,25.20
2023-05-09T04:48:08.744Z,25.21
2023-05-09T04:49:08.737Z,25.21
2023-05-09T04:50:08.818Z,25.21
2023-05-09T04:51:08.868Z,25.21
2023-05-09T04:52:08.931Z,25.20
2023-05-09T04:53:08.982Z,25.19
2023-05-09T04:54:09.046Z,25.20
2023-05-09T04:55:09.106Z,25.20
2023-05-09T04:56:09.165Z,25.19
2023-05-09T04:57:17.380Z,25.19
2023-05-09T04:58:09.238Z,25.21
2023-05-09T04:59:09.361Z,25.20
2023-05-09T05:00:09.261Z,25.21
2023-05-09T05:01:09.278Z,25.21
2023-05-09T05:02:09.289Z,25.21
2023-05-09T05:03:09.428Z,25.21
2023-05-09T05:04:09.341Z,25.23
2023-05-09T05:05:12.429Z,25.23
2023-05-09T05:06:09.319Z,25.21
2023-05-09T05:07:09.325Z,25.21
2023-05-09T05:08:09.331Z,25.19
2023-05-09T05:09:09.344Z,25.21
2023-05-09T05:10:09.345Z,25.24
2023-05-09T05:11:09.346Z,25.23
2023-05-09T05:12:09.874Z,25.23
2023-05-09T05:13:09.458Z,25.23
2023-05-09T05:14:09.388Z,25.24
2023-05-09T05:15:09.525Z,25.21
2023-05-09T05:16:09.420Z,25.24
2023-05-09T05:17:09.406Z,25.24
2023-05-09T05:18:09.468Z,25.24
2023-05-09T05:19:09.432Z,25.21
2023-05-09T05:20:09.443Z,25.24
2023-05-09T05:21:09.449Z,25.24
2023-05-09T05:22:09.445Z,25.24
2023-05-09T05:23:09.919Z,25.23
2023-05-09T05:24:09.470Z,25.26
2023-05-09T05:25:09.480Z,25.24
2023-05-09T05:26:09.486Z,25.26
2023-05-09T05:27:09.492Z,25.26
2023-05-09T05:28:09.498Z,25.27
2023-05-09T05:29:09.511Z,25.27
2023-05-09T05:30:09.564Z,25.27
2023-05-09T05:31:09.778Z,25.29
2023-05-09T05:32:09.927Z,25.27
2023-05-09T05:33:09.817Z,25.27
2023-05-09T05:34:09.775Z,25.30
2023-05-09T05:35:09.834Z,25.29
2023-05-09T05:36:09.889Z,25.31
2023-05-09T05:37:09.934Z,25.33
2023-05-09T05:38:10.427Z,25.31
2023-05-09T05:39:10.038Z,25.31
2023-05-09T05:40:10.104Z,25.31
2023-05-09T05:41:10.153Z,25.33
2023-05-09T05:42:10.206Z,25.34
2023-05-09T05:43:10.605Z,25.33
2023-05-09T05:44:10.332Z,25.36
2023-05-09T05:45:10.374Z,25.36
2023-05-09T05:46:10.445Z,25.34
2023-05-09T05:47:10.505Z,25.37
2023-05-09T05:48:11.000Z,25.37
2023-05-09T05:49:10.552Z,25.41
2023-05-09T05:50:10.589Z,25.41
2023-05-09T05:51:10.634Z,25.42
2023-05-09T05:52:10.666Z,25.44
2023-05-09T12:41:31.062Z,26.21
2023-05-09T12:42:17.867Z,26.21
2023-05-09T12:43:17.854Z,26.20
2023-05-09T12:44:17.837Z,26.03
2023-05-09T12:45:18.094Z,26.10
2023-05-09T12:46:17.836Z,26.13
2023-05-09T12:47:17.927Z,26.12
2023-05-09T12:48:17.740Z,26.12
2023-05-09T12:49:17.725Z,26.07
2023-05-09T12:50:18.078Z,26.08
2023-05-09T12:51:17.689Z,26.12
2023-05-09T12:52:17.675Z,26.17
2023-05-09T12:53:17.713Z,26.14
2023-05-09T12:54:17.749Z,26.17
2023-05-09T12:55:18.087Z,26.19
2023-05-09T12:56:17.828Z,26.17
2023-05-09T12:57:18.069Z,26.19
2023-05-09T12:58:17.887Z,26.23
2023-05-09T12:59:17.924Z,26.23
2023-05-09T13:00:18.103Z,26.21
2023-05-09T13:01:18.003Z,26.26
2023-05-09T13:02:18.101Z,26.30
2023-05-09T13:03:18.127Z,26.32
2023-05-09T13:04:18.123Z,26.34
2023-05-09T13:05:18.168Z,26.34
2023-05-09T13:06:18.225Z,26.37
2023-05-09T13:07:18.255Z,26.37
2023-05-09T13:08:18.286Z,26.32
2023-05-09T13:09:18.338Z,26.31
2023-05-09T13:10:18.364Z,26.35
2023-05-09T13:11:18.390Z,26.37
2023-05-09T13:12:18.593Z,26.39
2023-05-09T13:13:21.928Z,26.41
2023-05-09T13:14:18.458Z,26.39
2023-05-09T13:15:18.901Z,26.37
2023-05-09T13:16:21.607Z,26.28
2023-05-09T13:17:18.337Z,26.20
2023-05-09T13:18:21.515Z,26.28
2023-05-09T13:19:18.285Z,26.31
2023-05-09T13:20:18.742Z,26.28
2023-05-09T13:21:17.598Z,26.26
2023-05-09T13:22:18.241Z,26.30
2023-05-09T13:23:18.216Z,26.31
2023-05-09T13:24:18.202Z,26.26
2023-05-09T13:25:18.196Z,26.31
2023-05-09T13:26:18.204Z,26.28
2023-05-09T13:27:18.157Z,26.24
2023-05-09T13:28:18.131Z,26.20
2023-05-09T13:29:18.209Z,26.23
2023-05-09T13:30:18.448Z,26.28
2023-05-09T13:31:18.149Z,26.28
2023-05-09T13:32:18.026Z,26.34
2023-05-09T13:33:25.892Z,26.35
2023-05-09T13:34:17.970Z,26.38
2023-05-09T13:35:17.952Z,26.42
2023-05-09T13:36:17.926Z,26.44
2023-05-09T13:37:17.897Z,26.44
2023-05-09T13:38:18.103Z,26.44
2023-05-09T13:39:17.894Z,26.45
2023-05-09T13:40:18.141Z,26.47
2023-05-09T13:41:18.108Z,26.48
2023-05-09T13:42:19.166Z,26.45
2023-05-09T13:43:17.847Z,26.47
2023-05-09T13:44:17.903Z,26.48
2023-05-09T13:45:18.236Z,26.45
2023-05-09T13:46:18.046Z,26.48
2023-05-09T13:47:18.064Z,26.49
2023-05-09T13:48:18.112Z,26.51
2023-05-09T13:49:18.088Z,26.52
2023-05-09T13:50:18.297Z,26.55
2023-05-09T13:51:18.181Z,26.54
2023-05-09T13:52:18.226Z,26.54
2023-05-09T13:53:18.268Z,26.58
2023-05-09T13:54:18.292Z,26.56
2023-05-09T13:55:18.350Z,26.56
2023-05-09T13:56:18.393Z,26.58
2023-05-09T13:57:18.416Z,26.58
2023-05-09T13:58:18.431Z,26.58
2023-05-09T13:59:18.460Z,26.58
2023-05-09T14:00:18.842Z,26.59
2023-05-09T14:01:18.742Z,26.59
2023-05-09T14:02:18.602Z,26.59
2023-05-09T14:03:18.673Z,26.62
2023-05-09T14:04:18.697Z,26.60
2023-05-09T14:05:18.949Z,26.60
2023-05-09T14:06:18.806Z,26.63
2023-05-09T14:07:18.852Z,26.62
2023-05-09T14:08:18.905Z,26.60
2023-05-09T14:09:18.938Z,26.60
2023-05-09T14:10:19.240Z,26.60
2023-05-09T14:11:19.133Z,26.59
2023-05-09T14:12:19.080Z,26.60
2023-05-09T14:13:19.179Z,26.59
2023-05-09T14:14:19.176Z,26.59
2023-05-09T14:15:19.232Z,26.62
2023-05-09T14:16:19.344Z,26.60
2023-05-09T14:17:19.424Z,26.60
2023-05-09T14:18:21.057Z,26.58
2023-05-09T14:19:19.321Z,26.60
2023-05-09T14:20:19.319Z,26.63
2023-05-09T14:21:19.282Z,26.62
2023-05-09T14:22:19.262Z,26.60
2023-05-09T14:23:19.244Z,26.62
2023-05-09T14:24:19.221Z,26.60
2023-05-09T14:25:19.205Z,26.62
2023-05-09T14:26:19.193Z,26.66
2023-05-09T14:27:19.190Z,26.59
2023-05-09T14:28:19.161Z,26.63
2023-05-09T14:29:19.176Z,26.63
2023-05-09T14:30:19.163Z,26.65
2023-05-09T14:31:19.141Z,26.65
2023-05-09T14:32:19.081Z,26.63
2023-05-09T14:33:19.188Z,26.63
2023-05-09T14:34:19.038Z,26.65
2023-05-09T14:35:19.071Z,26.63
2023-05-09T14:36:19.128Z,26.69
2023-05-09T14:37:18.990Z,26.68
2023-05-09T14:38:18.956Z,26.68
2023-05-09T14:39:19.117Z,26.65
2023-05-09T14:40:18.936Z,26.68
2023-05-09T14:41:21.366Z,26.72
2023-05-09T14:42:18.872Z,26.71
2023-05-09T14:43:18.847Z,26.68
2023-05-09T14:44:18.826Z,26.71
2023-05-09T14:45:18.785Z,26.69
2023-05-09T14:46:18.758Z,26.73
2023-05-09T14:47:18.735Z,26.73
2023-05-09T14:48:18.796Z,26.73
2023-05-09T14:49:18.816Z,26.73
2023-05-09T14:50:18.653Z,26.75
2023-05-09T14:51:18.640Z,26.76
2023-05-09T14:52:18.615Z,26.76
2023-05-09T14:53:18.598Z,26.75
2023-05-09T14:54:18.653Z,26.78
2023-05-09T14:55:18.569Z,26.78
2023-05-09T14:56:18.541Z,26.76
2023-05-09T14:57:18.534Z,26.78
2023-05-09T14:58:18.512Z,26.79
2023-05-09T14:59:18.512Z,26.79
2023-05-09T15:00:21.831Z,26.79
2023-05-09T15:01:18.695Z,26.80
2023-05-09T15:02:18.435Z,26.79
2023-05-09T15:03:18.403Z,26.80
2023-05-09T15:04:18.400Z,26.82
2023-05-09T15:05:18.499Z,26.86
2023-05-09T15:06:18.364Z,26.85
2023-05-09T15:07:18.327Z,26.85
2023-05-09T15:08:18.308Z,26.89
2023-05-09T15:09:18.295Z,26.87
2023-05-09T15:10:18.822Z,26.89
2023-05-09T15:11:18.239Z,26.91
2023-05-09T15:12:18.225Z,26.96
2023-05-09T15:13:18.300Z,26.96
2023-05-09T15:14:18.261Z,26.97
2023-05-09T15:15:18.284Z,26.97
2023-05-09T15:16:18.333Z,27.03
2023-05-09T15:17:18.329Z,27.04
2023-05-09T15:18:18.370Z,27.08
2023-05-09T15:19:18.370Z,27.10
2023-05-09T15:20:18.651Z,27.14
2023-05-09T15:21:18.549Z,27.15
2023-05-09T15:22:18.433Z,27.24
2023-05-09T15:23:18.524Z,27.32
2023-05-09T15:24:18.472Z,27.38
2023-05-09T15:25:18.489Z,27.44
2023-05-09T15:26:18.486Z,27.56
2023-05-09T15:27:18.490Z,27.62
2023-05-09T15:28:18.513Z,27.73
2023-05-09T15:29:18.529Z,27.81
2023-05-09T15:30:18.674Z,27.91
2023-05-09T15:31:18.573Z,27.98
2023-05-09T15:32:18.547Z,28.04
2023-05-09T15:33:18.542Z,28.09
2023-05-09T15:34:18.546Z,28.11
2023-05-09T15:35:18.566Z,28.03
2023-05-09T15:36:18.536Z,28.04
2023-05-09T15:37:18.621Z,28.01
2023-05-09T15:38:18.488Z,27.97
2023-05-09T15:39:18.501Z,27.94
2023-05-09T15:40:18.663Z,27.91
2023-05-09T15:41:18.512Z,27.86
2023-05-09T15:42:18.492Z,27.80
2023-05-09T15:43:18.474Z,27.80
2023-05-09T15:44:18.493Z,27.79
2023-05-09T15:45:18.456Z,27.72
2023-05-09T15:46:18.508Z,27.67
2023-05-09T15:47:18.457Z,27.63
2023-05-09T15:48:18.440Z,27.63
2023-05-09T15:49:18.444Z,27.59
2023-05-09T15:50:18.660Z,27.60
2023-05-09T15:51:18.450Z,27.63
2023-05-09T15:52:18.444Z,27.63
2023-05-09T15:53:18.572Z,27.60
2023-05-09T15:54:18.451Z,27.62
2023-05-09T15:55:18.524Z,27.63
2023-05-09T15:56:18.442Z,27.66
2023-05-09T15:57:18.441Z,27.67
2023-05-09T15:58:18.440Z,27.69
2023-05-09T15:59:18.434Z,27.70
2023-05-09T16:00:18.443Z,27.69
2023-05-09T16:01:18.495Z,27.67
2023-05-09T16:02:18.459Z,27.69
2023-05-09T16:03:18.692Z,27.72
2023-05-09T16:04:18.392Z,27.74
2023-05-09T16:05:18.384Z,27.77
2023-05-09T16:06:18.386Z,27.80
2023-05-09T16:07:18.538Z,27.84
2023-05-09T16:08:18.366Z,27.87
2023-05-09T16:09:18.453Z,27.90
2023-05-09T16:10:18.365Z,27.97
2023-05-09T16:11:18.280Z,28.08
2023-05-09T16:12:18.348Z,28.40
2023-05-09T16:13:18.358Z,28.71
2023-05-09T16:14:18.701Z,28.60
2023-05-09T16:15:18.370Z,28.73
2023-05-09T16:16:18.388Z,29.70
2023-05-09T16:17:18.335Z,29.70
2023-05-09T16:18:18.314Z,29.34
2023-05-09T16:19:18.311Z,29.15
2023-05-09T16:20:18.463Z,28.97
2023-05-09T16:21:18.339Z,28.80
2023-05-09T16:22:18.361Z,28.64
2023-05-09T16:23:18.395Z,28.52
2023-05-09T16:24:17.492Z,28.38
2023-05-09T16:25:18.569Z,28.29
2023-05-09T16:26:18.429Z,28.18
2023-05-09T16:27:18.404Z,28.09
2023-05-09T16:28:18.389Z,28.00
2023-05-09T16:29:18.371Z,27.94
2023-05-09T16:30:18.494Z,27.87
2023-05-09T16:31:18.391Z,27.81
2023-05-09T16:32:18.340Z,27.77
2023-05-09T16:33:18.331Z,27.73
2023-05-09T16:34:18.328Z,27.70
2023-05-09T16:35:18.329Z,27.67
2023-05-09T16:36:18.344Z,27.66
2023-05-09T16:37:18.333Z,27.63
2023-05-09T16:38:18.338Z,27.60
2023-05-09T16:39:18.340Z,27.60
2023-05-09T16:40:18.473Z,27.57
2023-05-09T16:41:18.470Z,27.56
2023-05-09T16:42:18.344Z,27.52
2023-05-09T16:43:18.335Z,27.55
2023-05-09T16:44:18.334Z,27.62
2023-05-09T16:45:18.334Z,27.74
2023-05-09T16:46:18.322Z,27.84
2023-05-09T16:47:18.326Z,27.90
2023-05-09T16:48:18.306Z,27.93
2023-05-09T16:49:18.275Z,27.91
2023-05-09T16:50:18.355Z,27.87
2023-05-09T16:51:18.236Z,27.80
2023-05-09T16:52:18.232Z,27.76
2023-05-09T16:53:18.213Z,27.70
2023-05-09T16:54:18.205Z,27.67
2023-05-09T16:55:18.198Z,27.63
2023-05-09T16:56:18.197Z,27.55
2023-05-09T16:57:18.237Z,27.52
2023-05-09T16:58:18.214Z,27.46
2023-05-09T16:59:18.229Z,27.41
2023-05-09T17:00:18.233Z,27.39
2023-05-09T17:01:18.332Z,27.34
2023-05-09T17:02:18.257Z,27.32
2023-05-09T17:03:18.283Z,27.30
2023-05-09T17:04:18.280Z,27.25
2023-05-09T17:05:18.312Z,27.24
2023-05-09T17:06:18.309Z,27.20
2023-05-09T17:07:18.321Z,27.17
2023-05-09T17:08:18.341Z,27.15
2023-05-09T17:09:18.360Z,27.13
2023-05-09T17:10:18.590Z,27.14
2023-05-09T17:11:18.721Z,27.10
2023-05-09T17:12:18.607Z,27.07
2023-05-09T17:13:18.581Z,27.07
2023-05-09T17:14:18.469Z,27.05
2023-05-09T17:15:18.483Z,27.01
2023-05-09T17:16:18.627Z,27.00
2023-05-09T17:17:18.528Z,27.00
2023-05-09T17:18:29.190Z,26.98
2023-05-09T17:19:18.546Z,26.93
2023-05-09T17:20:18.713Z,26.94
2023-05-09T17:21:18.508Z,26.90
2023-05-09T17:22:18.487Z,26.91
2023-05-09T17:23:18.473Z,26.89
2023-05-09T17:24:18.452Z,26.86
2023-05-09T17:25:18.434Z,26.86
2023-05-09T17:26:18.432Z,26.83
2023-05-09T17:27:18.417Z,26.80
2023-05-09T17:28:18.410Z,26.79
2023-05-09T17:29:18.528Z,26.80
2023-05-09T17:30:20.602Z,26.76
2023-05-09T17:31:18.410Z,26.76
2023-05-09T17:32:18.359Z,26.75
2023-05-09T17:33:18.344Z,26.75
2023-05-09T17:34:18.319Z,26.72
2023-05-09T17:35:18.297Z,26.72
2023-05-09T17:36:18.281Z,26.71
2023-05-09T17:37:18.265Z,26.68
2023-05-09T17:38:18.244Z,26.66
2023-05-09T17:39:18.225Z,26.66
2023-05-09T17:40:18.371Z,26.65
2023-05-09T17:41:18.198Z,26.63
2023-05-09T17:42:18.189Z,26.62
2023-05-09T17:43:18.173Z,26.62
2023-05-09T17:44:18.146Z,26.63
2023-05-09T17:45:18.309Z,26.59
2023-05-09T17:46:18.246Z,26.58
2023-05-09T17:47:18.248Z,26.56
2023-05-09T17:48:18.289Z,26.56
2023-05-09T17:49:18.385Z,26.56
2023-05-09T17:50:18.765Z,26.56
2023-05-09T17:51:18.416Z,26.54
2023-05-09T17:52:18.442Z,26.55
2023-05-09T17:53:18.496Z,26.52
2023-05-09T17:54:18.508Z,26.49
2023-05-09T17:55:18.551Z,26.49
2023-05-09T17:56:18.591Z,26.51
2023-05-09T17:57:18.630Z,26.48
2023-05-09T17:58:18.676Z,26.51
2023-05-09T17:59:18.712Z,26.49
2023-05-09T18:00:18.747Z,26.47
2023-05-09T18:01:19.055Z,26.47
2023-05-09T18:02:18.864Z,26.47
2023-05-09T18:03:18.926Z,26.48
2023-05-09T18:04:18.942Z,26.44
2023-05-09T18:05:19.016Z,26.42
2023-05-09T18:06:19.041Z,26.41
2023-05-09T18:07:19.094Z,26.42
2023-05-09T18:08:19.154Z,26.41
2023-05-09T18:09:19.201Z,26.42
2023-05-09T18:10:19.247Z,26.39
2023-05-09T18:11:19.302Z,26.37
2023-05-09T18:12:19.348Z,26.38
2023-05-09T18:13:19.453Z,26.37
2023-05-09T18:14:19.435Z,26.39
2023-05-09T18:15:19.489Z,26.37
2023-05-09T18:16:19.558Z,26.37
2023-05-09T18:17:19.601Z,26.38
2023-05-09T18:18:19.791Z,26.37
2023-05-09T18:19:19.665Z,26.35
2023-05-09T18:20:19.720Z,26.35
2023-05-09T18:21:19.760Z,26.34
2023-05-09T18:22:19.810Z,26.32
2023-05-09T18:23:19.858Z,26.30
2023-05-09T18:24:19.909Z,26.31
2023-05-09T18:25:19.957Z,26.32
2023-05-09T18:26:20.008Z,26.32
2023-05-09T18:27:20.063Z,26.31
2023-05-09T18:28:20.112Z,26.32
2023-05-09T18:29:20.186Z,26.28
2023-05-09T18:30:20.227Z,26.27
2023-05-09T18:31:20.381Z,26.31
2023-05-09T18:32:20.334Z,26.28
2023-05-09T18:33:20.396Z,26.27
2023-05-09T18:34:20.438Z,26.30
2023-05-09T18:35:20.497Z,26.30
2023-05-09T18:36:20.550Z,26.27
2023-05-09T18:37:20.587Z,26.27
2023-05-09T18:38:20.643Z,26.27
2023-05-09T18:39:20.703Z,26.26
2023-05-09T18:40:20.726Z,26.24
2023-05-09T18:41:20.778Z,26.26
2023-05-09T18:42:20.857Z,26.27
2023-05-09T18:43:20.893Z,26.24
2023-05-09T18:44:20.910Z,26.23
2023-05-09T18:45:20.962Z,26.26
2023-05-09T18:46:21.167Z,26.24
2023-05-09T18:47:21.088Z,26.21
2023-05-09T18:48:21.164Z,26.23
2023-05-09T18:49:21.343Z,26.23
2023-05-09T18:50:21.258Z,26.20
2023-05-09T18:51:21.283Z,26.20
2023-05-09T18:52:21.347Z,26.20
2023-05-09T18:53:21.365Z,26.20
2023-05-09T18:54:21.393Z,26.23
2023-05-09T18:55:21.441Z,26.20
2023-05-09T18:56:21.497Z,26.19
2023-05-09T18:57:21.559Z,26.20
2023-05-09T18:58:21.612Z,26.19
2023-05-09T18:59:21.623Z,26.16
2023-05-09T19:00:21.680Z,26.19
2023-05-09T19:01:21.777Z,26.17
2023-05-09T19:02:21.922Z,26.14
2023-05-09T19:03:21.837Z,26.16
2023-05-09T19:04:21.999Z,26.16
2023-05-09T19:05:22.080Z,26.16
2023-05-09T19:06:22.026Z,26.19
2023-05-09T19:07:22.076Z,26.16
2023-05-09T19:08:22.119Z,26.16
2023-05-09T19:09:22.188Z,26.16
2023-05-09T19:10:22.246Z,26.14
2023-05-09T19:11:22.267Z,26.14
2023-05-09T19:12:22.302Z,26.13
2023-05-09T19:13:22.351Z,26.13
2023-05-09T19:14:22.286Z,26.13
2023-05-09T19:15:22.348Z,26.12
2023-05-09T19:16:22.449Z,26.13
2023-05-09T19:17:22.438Z,26.13
2023-05-09T19:18:22.456Z,26.12
2023-05-09T19:19:22.449Z,26.13
2023-05-09T19:20:22.476Z,26.13
2023-05-09T19:21:22.620Z,26.10
2023-05-09T19:22:22.516Z,26.10
2023-05-09T19:23:22.541Z,26.08
2023-05-09T19:24:22.596Z,26.10
2023-05-09T19:25:22.651Z,26.10
2023-05-09T19:26:22.676Z,26.10
2023-05-09T19:27:22.745Z,26.08
2023-05-09T19:28:22.784Z,26.08
2023-05-09T19:29:22.778Z,26.10
2023-05-09T19:30:22.770Z,26.08
2023-05-09T19:31:22.803Z,26.12
2023-05-09T19:32:22.741Z,26.12
2023-05-09T19:33:22.741Z,26.07
2023-05-09T19:34:22.724Z,26.07
2023-05-09T19:35:22.710Z,26.06
2023-05-09T19:36:22.693Z,26.08
2023-05-09T19:37:22.714Z,26.08
2023-05-09T19:38:22.696Z,26.08
2023-05-09T19:39:22.719Z,26.07
2023-05-09T19:40:22.708Z,26.08
2023-05-09T19:41:22.697Z,26.06